sensor_id;sensor_type;location;lat;lon;timestamp;P1;durP1;ratioP1;P2;durP2;ratioP2
50393;SDS011;36308;46.312;25.288;2022-11-24T00:01:16;20.88;;;12.85;;
50393;SDS011;36308;46.312;25.288;2022-11-24T00:03:43;19.13;;;11.80;;
50393;SDS011;36308;46.312;25.288;2022-11-24T00:06:10;17.85;;;10.80;;
50393;SDS011;36308;46.312;25.288;2022-11-24T00:08:38;18.50;;;10.65;;
50393;SDS011;36308;46.312;25.288;2022-11-24T00:11:09;14.50;;;9.60;;
50393;SDS011;36308;46.312;25.288;2022-11-24T00:13:45;19.25;;;11.23;;
50393;SDS011;36308;46.312;25.288;2022-11-24T00:18:41;17.80;;;10.90;;
50393;SDS011;36308;46.312;25.288;2022-11-24T00:21:09;16.77;;;10.68;;
50393;SDS011;36308;46.312;25.288;2022-11-24T00:23:35;17.33;;;10.93;;
50393;SDS011;36308;46.312;25.288;2022-11-24T00:28:34;18.70;;;10.13;;
50393;SDS011;36308;46.312;25.288;2022-11-24T00:31:01;16.65;;;9.98;;
50393;SDS011;36308;46.312;25.288;2022-11-24T00:33:27;17.05;;;9.70;;
50393;SDS011;36308;46.312;25.288;2022-11-24T00:35:53;14.50;;;9.15;;
50393;SDS011;36308;46.312;25.288;2022-11-24T00:38:20;18.08;;;9.48;;
50393;SDS011;36308;46.312;25.288;2022-11-24T00:40:45;17.42;;;10.20;;
50393;SDS011;36308;46.312;25.288;2022-11-24T00:43:10;15.23;;;8.50;;
50393;SDS011;36308;46.312;25.288;2022-11-24T00:45:36;17.63;;;10.10;;
50393;SDS011;36308;46.312;25.288;2022-11-24T00:48:01;15.88;;;9.43;;
50393;SDS011;36308;46.312;25.288;2022-11-24T00:50:27;16.33;;;9.30;;
50393;SDS011;36308;46.312;25.288;2022-11-24T00:52:52;17.00;;;9.77;;
50393;SDS011;36308;46.312;25.288;2022-11-24T00:55:18;15.63;;;9.48;;
50393;SDS011;36308;46.312;25.288;2022-11-24T00:57:43;17.42;;;9.57;;
50393;SDS011;36308;46.312;25.288;2022-11-24T01:00:09;18.35;;;10.05;;
50393;SDS011;36308;46.312;25.288;2022-11-24T01:02:34;16.05;;;8.55;;
50393;SDS011;36308;46.312;25.288;2022-11-24T01:04:59;15.88;;;9.07;;
50393;SDS011;36308;46.312;25.288;2022-11-24T01:07:26;17.55;;;9.55;;
50393;SDS011;36308;46.312;25.288;2022-11-24T01:09:51;16.88;;;9.18;;
50393;SDS011;36308;46.312;25.288;2022-11-24T01:12:17;17.65;;;10.45;;
50393;SDS011;36308;46.312;25.288;2022-11-24T01:14:42;16.58;;;9.93;;
50393;SDS011;36308;46.312;25.288;2022-11-24T01:17:07;17.08;;;9.40;;
50393;SDS011;36308;46.312;25.288;2022-11-24T01:19:33;15.23;;;8.18;;
50393;SDS011;36308;46.312;25.288;2022-11-24T01:21:58;18.85;;;9.60;;
50393;SDS011;36308;46.312;25.288;2022-11-24T01:24:24;19.42;;;11.32;;
50393;SDS011;36308;46.312;25.288;2022-11-24T01:26:49;36.83;;;21.63;;
50393;SDS011;36308;46.312;25.288;2022-11-24T01:29:14;29.83;;;18.58;;
50393;SDS011;36308;46.312;25.288;2022-11-24T01:31:40;30.45;;;18.40;;
50393;SDS011;36308;46.312;25.288;2022-11-24T01:34:06;27.30;;;15.95;;
50393;SDS011;36308;46.312;25.288;2022-11-24T01:36:31;30.55;;;15.27;;
50393;SDS011;36308;46.312;25.288;2022-11-24T01:38:57;31.05;;;15.32;;
50393;SDS011;36308;46.312;25.288;2022-11-24T01:41:23;24.75;;;14.55;;
50393;SDS011;36308;46.312;25.288;2022-11-24T01:43:49;27.02;;;14.00;;
50393;SDS011;36308;46.312;25.288;2022-11-24T01:46:38;23.75;;;13.68;;
50393;SDS011;36308;46.312;25.288;2022-11-24T01:51:36;23.20;;;13.73;;
50393;SDS011;36308;46.312;25.288;2022-11-24T01:54:08;25.17;;;13.73;;
50393;SDS011;36308;46.312;25.288;2022-11-24T01:56:37;21.40;;;13.02;;
50393;SDS011;36308;46.312;25.288;2022-11-24T01:59:06;23.30;;;13.40;;
50393;SDS011;36308;46.312;25.288;2022-11-24T02:01:35;18.58;;;11.45;;
50393;SDS011;36308;46.312;25.288;2022-11-24T02:04:01;18.13;;;10.98;;
50393;SDS011;36308;46.312;25.288;2022-11-24T02:06:30;20.20;;;11.68;;
50393;SDS011;36308;46.312;25.288;2022-11-24T02:09:01;17.13;;;10.82;;
50393;SDS011;36308;46.312;25.288;2022-11-24T02:11:33;18.63;;;10.27;;
50393;SDS011;36308;46.312;25.288;2022-11-24T02:14:01;20.70;;;11.57;;
50393;SDS011;36308;46.312;25.288;2022-11-24T02:16:30;19.70;;;12.38;;
50393;SDS011;36308;46.312;25.288;2022-11-24T02:18:56;18.23;;;11.75;;
50393;SDS011;36308;46.312;25.288;2022-11-24T02:21:22;16.38;;;10.70;;
50393;SDS011;36308;46.312;25.288;2022-11-24T02:29:01;18.95;;;12.20;;
50393;SDS011;36308;46.312;25.288;2022-11-24T02:31:27;20.70;;;12.70;;
50393;SDS011;36308;46.312;25.288;2022-11-24T02:33:53;24.50;;;14.05;;
50393;SDS011;36308;46.312;25.288;2022-11-24T02:36:19;25.95;;;15.75;;
50393;SDS011;36308;46.312;25.288;2022-11-24T02:38:45;27.85;;;15.90;;
50393;SDS011;36308;46.312;25.288;2022-11-24T02:41:11;27.25;;;15.00;;
50393;SDS011;36308;46.312;25.288;2022-11-24T02:43:43;28.05;;;15.80;;
50393;SDS011;36308;46.312;25.288;2022-11-24T02:46:13;28.90;;;15.05;;
50393;SDS011;36308;46.312;25.288;2022-11-24T02:48:38;27.35;;;15.18;;
50393;SDS011;36308;46.312;25.288;2022-11-24T02:51:04;23.02;;;13.57;;
50393;SDS011;36308;46.312;25.288;2022-11-24T02:53:29;25.08;;;14.38;;
50393;SDS011;36308;46.312;25.288;2022-11-24T02:55:55;23.45;;;12.73;;
50393;SDS011;36308;46.312;25.288;2022-11-24T02:58:20;17.15;;;10.10;;
50393;SDS011;36308;46.312;25.288;2022-11-24T03:00:46;17.88;;;9.88;;
50393;SDS011;36308;46.312;25.288;2022-11-24T03:03:12;17.65;;;9.38;;
50393;SDS011;36308;46.312;25.288;2022-11-24T03:05:37;15.63;;;9.38;;
50393;SDS011;36308;46.312;25.288;2022-11-24T03:08:03;15.15;;;9.45;;
50393;SDS011;36308;46.312;25.288;2022-11-24T03:10:29;15.80;;;9.18;;
50393;SDS011;36308;46.312;25.288;2022-11-24T03:12:54;16.83;;;10.23;;
50393;SDS011;36308;46.312;25.288;2022-11-24T03:15:20;16.10;;;10.07;;
50393;SDS011;36308;46.312;25.288;2022-11-24T03:17:47;19.00;;;11.07;;
50393;SDS011;36308;46.312;25.288;2022-11-24T03:20:13;15.70;;;9.48;;
50393;SDS011;36308;46.312;25.288;2022-11-24T03:22:38;13.77;;;8.52;;
50393;SDS011;36308;46.312;25.288;2022-11-24T03:25:04;13.30;;;8.35;;
50393;SDS011;36308;46.312;25.288;2022-11-24T03:27:30;11.63;;;7.38;;
50393;SDS011;36308;46.312;25.288;2022-11-24T03:29:55;12.75;;;7.70;;
50393;SDS011;36308;46.312;25.288;2022-11-24T03:32:21;14.25;;;8.18;;
50393;SDS011;36308;46.312;25.288;2022-11-24T03:34:46;14.82;;;7.97;;
50393;SDS011;36308;46.312;25.288;2022-11-24T03:37:12;11.20;;;6.63;;
50393;SDS011;36308;46.312;25.288;2022-11-24T03:39:37;13.20;;;7.32;;
50393;SDS011;36308;46.312;25.288;2022-11-24T03:42:03;13.35;;;7.35;;
50393;SDS011;36308;46.312;25.288;2022-11-24T03:44:28;10.68;;;7.00;;
50393;SDS011;36308;46.312;25.288;2022-11-24T03:46:54;13.50;;;7.70;;
50393;SDS011;36308;46.312;25.288;2022-11-24T03:49:19;21.30;;;12.68;;
50393;SDS011;36308;46.312;25.288;2022-11-24T03:51:44;18.23;;;13.00;;
50393;SDS011;36308;46.312;25.288;2022-11-24T03:54:10;18.35;;;11.90;;
50393;SDS011;36308;46.312;25.288;2022-11-24T03:56:35;19.17;;;12.90;;
50393;SDS011;36308;46.312;25.288;2022-11-24T03:59:01;19.67;;;13.30;;
50393;SDS011;36308;46.312;25.288;2022-11-24T04:01:27;19.38;;;12.80;;
50393;SDS011;36308;46.312;25.288;2022-11-24T04:03:52;21.02;;;13.52;;
50393;SDS011;36308;46.312;25.288;2022-11-24T04:06:17;20.00;;;12.23;;
50393;SDS011;36308;46.312;25.288;2022-11-24T04:08:43;19.65;;;12.02;;
50393;SDS011;36308;46.312;25.288;2022-11-24T04:11:08;17.10;;;11.90;;
50393;SDS011;36308;46.312;25.288;2022-11-24T04:13:53;20.27;;;12.88;;
50393;SDS011;36308;46.312;25.288;2022-11-24T04:16:19;17.63;;;11.13;;
50393;SDS011;36308;46.312;25.288;2022-11-24T04:18:44;18.55;;;13.02;;
50393;SDS011;36308;46.312;25.288;2022-11-24T04:21:10;21.08;;;13.38;;
50393;SDS011;36308;46.312;25.288;2022-11-24T04:23:35;17.48;;;12.27;;
50393;SDS011;36308;46.312;25.288;2022-11-24T04:26:00;21.02;;;12.88;;
50393;SDS011;36308;46.312;25.288;2022-11-24T04:28:26;18.38;;;12.05;;
50393;SDS011;36308;46.312;25.288;2022-11-24T04:30:51;20.38;;;12.27;;
50393;SDS011;36308;46.312;25.288;2022-11-24T04:33:17;19.17;;;12.38;;
50393;SDS011;36308;46.312;25.288;2022-11-24T04:35:42;21.48;;;14.00;;
50393;SDS011;36308;46.312;25.288;2022-11-24T04:38:07;24.13;;;13.57;;
50393;SDS011;36308;46.312;25.288;2022-11-24T04:40:33;24.08;;;14.18;;
50393;SDS011;36308;46.312;25.288;2022-11-24T04:42:58;22.58;;;13.70;;
50393;SDS011;36308;46.312;25.288;2022-11-24T04:45:24;24.10;;;13.50;;
50393;SDS011;36308;46.312;25.288;2022-11-24T04:47:49;23.33;;;13.02;;
50393;SDS011;36308;46.312;25.288;2022-11-24T04:50:15;20.23;;;13.30;;
50393;SDS011;36308;46.312;25.288;2022-11-24T04:52:41;20.50;;;12.48;;
50393;SDS011;36308;46.312;25.288;2022-11-24T04:55:07;24.45;;;12.80;;
50393;SDS011;36308;46.312;25.288;2022-11-24T04:57:33;29.05;;;18.98;;
50393;SDS011;36308;46.312;25.288;2022-11-24T04:59:58;28.77;;;18.20;;
50393;SDS011;36308;46.312;25.288;2022-11-24T05:02:24;30.45;;;18.88;;
50393;SDS011;36308;46.312;25.288;2022-11-24T05:04:49;47.22;;;29.25;;
50393;SDS011;36308;46.312;25.288;2022-11-24T05:07:15;47.65;;;31.33;;
50393;SDS011;36308;46.312;25.288;2022-11-24T05:09:42;49.97;;;31.33;;
50393;SDS011;36308;46.312;25.288;2022-11-24T05:12:26;49.88;;;30.58;;
50393;SDS011;36308;46.312;25.288;2022-11-24T05:15:03;42.45;;;26.50;;
50393;SDS011;36308;46.312;25.288;2022-11-24T05:17:32;41.65;;;27.45;;
50393;SDS011;36308;46.312;25.288;2022-11-24T05:20:02;43.00;;;28.02;;
50393;SDS011;36308;46.312;25.288;2022-11-24T05:22:29;44.50;;;26.50;;
50393;SDS011;36308;46.312;25.288;2022-11-24T05:24:55;47.58;;;29.77;;
50393;SDS011;36308;46.312;25.288;2022-11-24T05:27:21;47.97;;;28.92;;
50393;SDS011;36308;46.312;25.288;2022-11-24T05:29:46;49.65;;;28.38;;
50393;SDS011;36308;46.312;25.288;2022-11-24T05:32:12;45.85;;;27.95;;
50393;SDS011;36308;46.312;25.288;2022-11-24T05:34:37;46.22;;;26.58;;
50393;SDS011;36308;46.312;25.288;2022-11-24T05:37:03;37.67;;;23.85;;
50393;SDS011;36308;46.312;25.288;2022-11-24T05:39:32;34.90;;;23.40;;
50393;SDS011;36308;46.312;25.288;2022-11-24T05:42:00;35.08;;;22.63;;
50393;SDS011;36308;46.312;25.288;2022-11-24T05:44:46;46.75;;;28.33;;
50393;SDS011;36308;46.312;25.288;2022-11-24T05:47:12;48.70;;;26.33;;
50393;SDS011;36308;46.312;25.288;2022-11-24T05:49:37;50.88;;;30.85;;
50393;SDS011;36308;46.312;25.288;2022-11-24T05:52:03;47.92;;;28.17;;
50393;SDS011;36308;46.312;25.288;2022-11-24T05:54:28;47.05;;;30.50;;
50393;SDS011;36308;46.312;25.288;2022-11-24T05:56:54;39.55;;;27.30;;
50393;SDS011;36308;46.312;25.288;2022-11-24T05:59:20;27.98;;;20.75;;
50393;SDS011;36308;46.312;25.288;2022-11-24T06:01:45;25.38;;;18.38;;
50393;SDS011;36308;46.312;25.288;2022-11-24T06:04:11;30.48;;;19.95;;
50393;SDS011;36308;46.312;25.288;2022-11-24T06:06:36;23.27;;;15.30;;
50393;SDS011;36308;46.312;25.288;2022-11-24T06:09:02;22.25;;;14.48;;
50393;SDS011;36308;46.312;25.288;2022-11-24T06:11:28;19.42;;;12.25;;
50393;SDS011;36308;46.312;25.288;2022-11-24T06:13:53;23.95;;;15.15;;
50393;SDS011;36308;46.312;25.288;2022-11-24T06:16:19;27.60;;;17.10;;
50393;SDS011;36308;46.312;25.288;2022-11-24T06:18:44;36.75;;;22.15;;
50393;SDS011;36308;46.312;25.288;2022-11-24T06:21:09;34.05;;;22.08;;
50393;SDS011;36308;46.312;25.288;2022-11-24T06:23:35;47.50;;;27.45;;
50393;SDS011;36308;46.312;25.288;2022-11-24T06:26:00;58.47;;;34.75;;
50393;SDS011;36308;46.312;25.288;2022-11-24T06:28:26;53.17;;;33.08;;
50393;SDS011;36308;46.312;25.288;2022-11-24T06:30:52;48.70;;;30.27;;
50393;SDS011;36308;46.312;25.288;2022-11-24T06:33:18;45.60;;;28.20;;
50393;SDS011;36308;46.312;25.288;2022-11-24T06:35:44;51.30;;;32.08;;
50393;SDS011;36308;46.312;25.288;2022-11-24T06:38:09;50.10;;;32.65;;
50393;SDS011;36308;46.312;25.288;2022-11-24T06:40:35;52.10;;;33.47;;
50393;SDS011;36308;46.312;25.288;2022-11-24T06:43:00;124.47;;;71.30;;
50393;SDS011;36308;46.312;25.288;2022-11-24T06:45:25;69.78;;;44.72;;
50393;SDS011;36308;46.312;25.288;2022-11-24T06:47:54;47.15;;;32.08;;
50393;SDS011;36308;46.312;25.288;2022-11-24T06:50:21;33.80;;;23.73;;
50393;SDS011;36308;46.312;25.288;2022-11-24T06:52:47;27.85;;;20.10;;
50393;SDS011;36308;46.312;25.288;2022-11-24T06:55:12;27.60;;;19.30;;
50393;SDS011;36308;46.312;25.288;2022-11-24T06:57:38;27.90;;;18.88;;
50393;SDS011;36308;46.312;25.288;2022-11-24T07:00:04;36.08;;;25.98;;
50393;SDS011;36308;46.312;25.288;2022-11-24T07:02:32;38.22;;;25.63;;
50393;SDS011;36308;46.312;25.288;2022-11-24T07:04:57;52.60;;;32.22;;
50393;SDS011;36308;46.312;25.288;2022-11-24T07:07:23;56.55;;;38.95;;
50393;SDS011;36308;46.312;25.288;2022-11-24T07:09:48;90.65;;;58.65;;
50393;SDS011;36308;46.312;25.288;2022-11-24T07:12:13;104.63;;;67.50;;
50393;SDS011;36308;46.312;25.288;2022-11-24T07:14:39;120.07;;;71.97;;
50393;SDS011;36308;46.312;25.288;2022-11-24T07:17:04;123.45;;;80.10;;
50393;SDS011;36308;46.312;25.288;2022-11-24T07:19:30;112.57;;;69.13;;
50393;SDS011;36308;46.312;25.288;2022-11-24T07:21:55;90.53;;;58.50;;
50393;SDS011;36308;46.312;25.288;2022-11-24T07:24:21;58.58;;;40.10;;
50393;SDS011;36308;46.312;25.288;2022-11-24T07:26:46;62.15;;;42.85;;
50393;SDS011;36308;46.312;25.288;2022-11-24T07:29:13;68.90;;;47.00;;
50393;SDS011;36308;46.312;25.288;2022-11-24T07:31:38;50.75;;;30.15;;
50393;SDS011;36308;46.312;25.288;2022-11-24T07:34:04;34.72;;;22.20;;
50393;SDS011;36308;46.312;25.288;2022-11-24T07:36:30;34.92;;;23.20;;
50393;SDS011;36308;46.312;25.288;2022-11-24T07:38:55;37.78;;;25.23;;
50393;SDS011;36308;46.312;25.288;2022-11-24T07:41:21;37.20;;;25.92;;
50393;SDS011;36308;46.312;25.288;2022-11-24T07:43:47;29.65;;;19.58;;
50393;SDS011;36308;46.312;25.288;2022-11-24T07:46:14;33.10;;;21.48;;
50393;SDS011;36308;46.312;25.288;2022-11-24T07:48:41;33.03;;;20.23;;
50393;SDS011;36308;46.312;25.288;2022-11-24T07:51:06;33.35;;;22.48;;
50393;SDS011;36308;46.312;25.288;2022-11-24T07:53:33;39.67;;;24.23;;
50393;SDS011;36308;46.312;25.288;2022-11-24T07:55:59;35.45;;;24.83;;
50393;SDS011;36308;46.312;25.288;2022-11-24T07:58:27;26.95;;;16.60;;
50393;SDS011;36308;46.312;25.288;2022-11-24T08:00:54;23.77;;;16.05;;
50393;SDS011;36308;46.312;25.288;2022-11-24T08:03:20;21.88;;;14.15;;
50393;SDS011;36308;46.312;25.288;2022-11-24T08:05:54;27.17;;;16.63;;
50393;SDS011;36308;46.312;25.288;2022-11-24T08:08:21;30.73;;;20.98;;
50393;SDS011;36308;46.312;25.288;2022-11-24T08:10:47;29.67;;;17.50;;
50393;SDS011;36308;46.312;25.288;2022-11-24T08:13:12;22.90;;;15.30;;
50393;SDS011;36308;46.312;25.288;2022-11-24T08:15:38;21.98;;;14.70;;
50393;SDS011;36308;46.312;25.288;2022-11-24T08:18:03;21.67;;;13.73;;
50393;SDS011;36308;46.312;25.288;2022-11-24T08:20:29;21.65;;;14.40;;
50393;SDS011;36308;46.312;25.288;2022-11-24T08:22:58;23.48;;;14.90;;
50393;SDS011;36308;46.312;25.288;2022-11-24T08:25:27;22.67;;;15.60;;
50393;SDS011;36308;46.312;25.288;2022-11-24T08:28:00;23.35;;;14.45;;
50393;SDS011;36308;46.312;25.288;2022-11-24T08:30:27;25.02;;;15.00;;
50393;SDS011;36308;46.312;25.288;2022-11-24T08:32:53;19.42;;;12.82;;
50393;SDS011;36308;46.312;25.288;2022-11-24T08:35:19;18.67;;;11.88;;
50393;SDS011;36308;46.312;25.288;2022-11-24T08:37:44;17.73;;;10.88;;
50393;SDS011;36308;46.312;25.288;2022-11-24T08:40:10;16.05;;;9.93;;
50393;SDS011;36308;46.312;25.288;2022-11-24T08:42:36;18.23;;;11.52;;
50393;SDS011;36308;46.312;25.288;2022-11-24T08:45:01;14.25;;;10.05;;
50393;SDS011;36308;46.312;25.288;2022-11-24T08:47:28;16.15;;;11.05;;
50393;SDS011;36308;46.312;25.288;2022-11-24T08:49:53;19.95;;;13.45;;
50393;SDS011;36308;46.312;25.288;2022-11-24T08:52:18;28.13;;;16.50;;
50393;SDS011;36308;46.312;25.288;2022-11-24T08:54:44;21.40;;;12.63;;
50393;SDS011;36308;46.312;25.288;2022-11-24T08:57:10;24.77;;;16.00;;
50393;SDS011;36308;46.312;25.288;2022-11-24T08:59:38;24.25;;;14.98;;
50393;SDS011;36308;46.312;25.288;2022-11-24T09:02:03;22.58;;;13.23;;
50393;SDS011;36308;46.312;25.288;2022-11-24T09:04:30;34.97;;;21.60;;
50393;SDS011;36308;46.312;25.288;2022-11-24T09:06:56;26.70;;;17.45;;
50393;SDS011;36308;46.312;25.288;2022-11-24T09:09:22;24.73;;;16.08;;
50393;SDS011;36308;46.312;25.288;2022-11-24T09:11:47;23.20;;;12.80;;
50393;SDS011;36308;46.312;25.288;2022-11-24T09:14:12;13.90;;;9.23;;
50393;SDS011;36308;46.312;25.288;2022-11-24T09:16:38;16.85;;;8.55;;
50393;SDS011;36308;46.312;25.288;2022-11-24T09:19:04;12.32;;;7.70;;
50393;SDS011;36308;46.312;25.288;2022-11-24T09:21:32;15.80;;;8.63;;
50393;SDS011;36308;46.312;25.288;2022-11-24T09:24:01;18.65;;;10.05;;
50393;SDS011;36308;46.312;25.288;2022-11-24T09:26:28;17.13;;;9.35;;
50393;SDS011;36308;46.312;25.288;2022-11-24T09:28:55;20.58;;;9.30;;
50393;SDS011;36308;46.312;25.288;2022-11-24T09:31:23;22.17;;;11.48;;
50393;SDS011;36308;46.312;25.288;2022-11-24T09:33:50;16.98;;;9.60;;
50393;SDS011;36308;46.312;25.288;2022-11-24T09:36:17;19.17;;;10.70;;
50393;SDS011;36308;46.312;25.288;2022-11-24T09:38:43;16.95;;;10.70;;
50393;SDS011;36308;46.312;25.288;2022-11-24T09:49:52;33.40;;;14.68;;
50393;SDS011;36308;46.312;25.288;2022-11-24T10:00:45;28.95;;;16.08;;
50393;SDS011;36308;46.312;25.288;2022-11-24T10:03:28;17.92;;;11.40;;
50393;SDS011;36308;46.312;25.288;2022-11-24T10:05:57;9.38;;;5.63;;
50393;SDS011;36308;46.312;25.288;2022-11-24T10:11:40;9.20;;;5.40;;
50393;SDS011;36308;46.312;25.288;2022-11-24T10:20:08;6.03;;;4.22;;
50393;SDS011;36308;46.312;25.288;2022-11-24T10:22:50;9.15;;;5.07;;
50393;SDS011;36308;46.312;25.288;2022-11-24T10:28:04;6.85;;;4.05;;
50393;SDS011;36308;46.312;25.288;2022-11-24T10:30:37;6.43;;;4.03;;
50393;SDS011;36308;46.312;25.288;2022-11-24T10:33:05;6.90;;;4.72;;
50393;SDS011;36308;46.312;25.288;2022-11-24T10:38:49;6.10;;;4.47;;
50393;SDS011;36308;46.312;25.288;2022-11-24T10:41:23;6.85;;;4.93;;
50393;SDS011;36308;46.312;25.288;2022-11-24T10:44:00;15.48;;;8.40;;
50393;SDS011;36308;46.312;25.288;2022-11-24T10:46:26;13.68;;;8.00;;
50393;SDS011;36308;46.312;25.288;2022-11-24T10:48:55;15.02;;;8.23;;
50393;SDS011;36308;46.312;25.288;2022-11-24T10:53:55;94.47;;;35.28;;
50393;SDS011;36308;46.312;25.288;2022-11-24T10:56:26;104.43;;;44.08;;
50393;SDS011;36308;46.312;25.288;2022-11-24T10:59:18;22.38;;;11.52;;
50393;SDS011;36308;46.312;25.288;2022-11-24T11:01:53;40.90;;;17.83;;
50393;SDS011;36308;46.312;25.288;2022-11-24T11:04:28;15.40;;;9.32;;
50393;SDS011;36308;46.312;25.288;2022-11-24T11:09:41;12.52;;;8.10;;
50393;SDS011;36308;46.312;25.288;2022-11-24T11:12:10;13.40;;;8.68;;
50393;SDS011;36308;46.312;25.288;2022-11-24T11:14:44;10.30;;;6.97;;
50393;SDS011;36308;46.312;25.288;2022-11-24T11:22:26;8.73;;;6.07;;
50393;SDS011;36308;46.312;25.288;2022-11-24T11:25:04;11.43;;;7.43;;
50393;SDS011;36308;46.312;25.288;2022-11-24T11:27:31;26.70;;;17.98;;
50393;SDS011;36308;46.312;25.288;2022-11-24T11:30:42;44.60;;;23.77;;
50393;SDS011;36308;46.312;25.288;2022-11-24T11:35:18;10.35;;;7.30;;
50393;SDS011;36308;46.312;25.288;2022-11-24T11:37:44;7.55;;;5.05;;
50393;SDS011;36308;46.312;25.288;2022-11-24T11:43:30;8.30;;;4.40;;
50393;SDS011;36308;46.312;25.288;2022-11-24T11:46:04;13.82;;;6.05;;
50393;SDS011;36308;46.312;25.288;2022-11-24T11:48:36;4.53;;;2.80;;
50393;SDS011;36308;46.312;25.288;2022-11-24T11:53:39;110.85;;;34.05;;
50393;SDS011;36308;46.312;25.288;2022-11-24T11:59:38;19.30;;;10.45;;
50393;SDS011;36308;46.312;25.288;2022-11-24T12:04:46;8.50;;;5.57;;
50393;SDS011;36308;46.312;25.288;2022-11-24T12:20:39;2.28;;;1.63;;
50393;SDS011;36308;46.312;25.288;2022-11-24T12:32:17;2.15;;;1.20;;
50393;SDS011;36308;46.312;25.288;2022-11-24T12:43:58;6.47;;;3.35;;
50393;SDS011;36308;46.312;25.288;2022-11-24T12:51:43;7.00;;;3.95;;
50393;SDS011;36308;46.312;25.288;2022-11-24T12:54:13;2.40;;;1.45;;
50393;SDS011;36308;46.312;25.288;2022-11-24T13:07:31;5.03;;;3.00;;
50393;SDS011;36308;46.312;25.288;2022-11-24T13:15:18;3.13;;;2.33;;
50393;SDS011;36308;46.312;25.288;2022-11-24T13:17:44;2.47;;;1.52;;
50393;SDS011;36308;46.312;25.288;2022-11-24T13:20:13;3.75;;;2.65;;
50393;SDS011;36308;46.312;25.288;2022-11-24T13:22:53;1.05;;;0.85;;
50393;SDS011;36308;46.312;25.288;2022-11-24T13:25:27;5.00;;;3.03;;
50393;SDS011;36308;46.312;25.288;2022-11-24T13:27:54;3.60;;;2.50;;
50393;SDS011;36308;46.312;25.288;2022-11-24T13:35:27;46.95;;;18.98;;
50393;SDS011;36308;46.312;25.288;2022-11-24T13:37:53;22.17;;;10.70;;
50393;SDS011;36308;46.312;25.288;2022-11-24T13:53:32;10.15;;;6.07;;
50393;SDS011;36308;46.312;25.288;2022-11-24T13:58:54;32.92;;;13.20;;
50393;SDS011;36308;46.312;25.288;2022-11-24T14:01:34;55.15;;;22.75;;
50393;SDS011;36308;46.312;25.288;2022-11-24T14:09:17;15.38;;;9.13;;
50393;SDS011;36308;46.312;25.288;2022-11-24T14:11:44;10.32;;;6.05;;
50393;SDS011;36308;46.312;25.288;2022-11-24T14:14:21;26.83;;;16.65;;
50393;SDS011;36308;46.312;25.288;2022-11-24T14:16:47;11.18;;;5.90;;
50393;SDS011;36308;46.312;25.288;2022-11-24T14:19:16;21.63;;;13.25;;
50393;SDS011;36308;46.312;25.288;2022-11-24T14:21:42;15.20;;;9.20;;
50393;SDS011;36308;46.312;25.288;2022-11-24T14:24:11;12.25;;;6.80;;
50393;SDS011;36308;46.312;25.288;2022-11-24T14:26:50;10.55;;;6.13;;
50393;SDS011;36308;46.312;25.288;2022-11-24T14:29:16;5.47;;;2.88;;
50393;SDS011;36308;46.312;25.288;2022-11-24T14:31:57;8.73;;;6.20;;
50393;SDS011;36308;46.312;25.288;2022-11-24T14:34:25;5.55;;;3.78;;
50393;SDS011;36308;46.312;25.288;2022-11-24T14:36:53;12.70;;;6.65;;
50393;SDS011;36308;46.312;25.288;2022-11-24T14:39:20;6.40;;;3.47;;
50393;SDS011;36308;46.312;25.288;2022-11-24T14:41:56;4.95;;;3.55;;
50393;SDS011;36308;46.312;25.288;2022-11-24T14:44:30;12.45;;;5.47;;
50393;SDS011;36308;46.312;25.288;2022-11-24T14:47:20;8.93;;;6.45;;
50393;SDS011;36308;46.312;25.288;2022-11-24T14:49:49;9.20;;;6.05;;
50393;SDS011;36308;46.312;25.288;2022-11-24T14:52:16;27.65;;;16.33;;
50393;SDS011;36308;46.312;25.288;2022-11-24T14:54:45;16.70;;;10.27;;
50393;SDS011;36308;46.312;25.288;2022-11-24T14:57:22;9.65;;;5.97;;
50393;SDS011;36308;46.312;25.288;2022-11-24T15:02:40;14.23;;;9.75;;
50393;SDS011;36308;46.312;25.288;2022-11-24T15:05:10;13.13;;;8.60;;
50393;SDS011;36308;46.312;25.288;2022-11-24T15:07:36;11.68;;;7.95;;
50393;SDS011;36308;46.312;25.288;2022-11-24T15:10:04;18.88;;;13.18;;
50393;SDS011;36308;46.312;25.288;2022-11-24T15:12:41;26.00;;;14.93;;
50393;SDS011;36308;46.312;25.288;2022-11-24T15:17:51;53.47;;;30.38;;
50393;SDS011;36308;46.312;25.288;2022-11-24T15:20:23;24.98;;;17.20;;
50393;SDS011;36308;46.312;25.288;2022-11-24T15:25:45;18.90;;;13.75;;
50393;SDS011;36308;46.312;25.288;2022-11-24T15:28:11;20.52;;;14.88;;
50393;SDS011;36308;46.312;25.288;2022-11-24T15:30:37;32.90;;;23.98;;
50393;SDS011;36308;46.312;25.288;2022-11-24T15:33:08;40.15;;;27.85;;
50393;SDS011;36308;46.312;25.288;2022-11-24T15:35:41;15.50;;;10.35;;
50393;SDS011;36308;46.312;25.288;2022-11-24T15:38:06;16.90;;;10.40;;
50393;SDS011;36308;46.312;25.288;2022-11-24T15:40:32;14.00;;;8.35;;
50393;SDS011;36308;46.312;25.288;2022-11-24T15:42:57;16.85;;;9.98;;
50393;SDS011;36308;46.312;25.288;2022-11-24T15:45:23;23.45;;;9.68;;
50393;SDS011;36308;46.312;25.288;2022-11-24T15:47:52;17.83;;;12.75;;
50393;SDS011;36308;46.312;25.288;2022-11-24T15:50:18;15.85;;;9.55;;
50393;SDS011;36308;46.312;25.288;2022-11-24T15:52:44;12.85;;;8.95;;
50393;SDS011;36308;46.312;25.288;2022-11-24T15:55:17;17.33;;;10.70;;
50393;SDS011;36308;46.312;25.288;2022-11-24T15:57:45;22.85;;;12.82;;
50393;SDS011;36308;46.312;25.288;2022-11-24T16:00:17;9.48;;;5.70;;
50393;SDS011;36308;46.312;25.288;2022-11-24T16:02:44;20.95;;;12.82;;
50393;SDS011;36308;46.312;25.288;2022-11-24T16:05:11;37.20;;;23.95;;
50393;SDS011;36308;46.312;25.288;2022-11-24T16:07:37;49.97;;;30.45;;
50393;SDS011;36308;46.312;25.288;2022-11-24T16:10:04;38.95;;;24.05;;
50393;SDS011;36308;46.312;25.288;2022-11-24T16:12:31;23.00;;;13.93;;
50393;SDS011;36308;46.312;25.288;2022-11-24T16:14:56;29.52;;;16.30;;
50393;SDS011;36308;46.312;25.288;2022-11-24T16:17:22;24.85;;;15.68;;
50393;SDS011;36308;46.312;25.288;2022-11-24T16:19:47;15.27;;;11.18;;
50393;SDS011;36308;46.312;25.288;2022-11-24T16:22:12;12.85;;;9.13;;
50393;SDS011;36308;46.312;25.288;2022-11-24T16:24:38;27.33;;;18.10;;
50393;SDS011;36308;46.312;25.288;2022-11-24T16:27:03;13.73;;;9.60;;
50393;SDS011;36308;46.312;25.288;2022-11-24T16:29:29;16.23;;;9.05;;
50393;SDS011;36308;46.312;25.288;2022-11-24T16:31:54;15.00;;;9.05;;
50393;SDS011;36308;46.312;25.288;2022-11-24T16:34:20;22.13;;;13.85;;
50393;SDS011;36308;46.312;25.288;2022-11-24T16:36:45;16.88;;;9.52;;
50393;SDS011;36308;46.312;25.288;2022-11-24T16:39:11;18.33;;;10.00;;
50393;SDS011;36308;46.312;25.288;2022-11-24T16:41:36;15.50;;;8.57;;
50393;SDS011;36308;46.312;25.288;2022-11-24T16:44:02;26.92;;;17.77;;
50393;SDS011;36308;46.312;25.288;2022-11-24T16:46:27;22.30;;;13.30;;
50393;SDS011;36308;46.312;25.288;2022-11-24T16:48:53;17.67;;;11.40;;
50393;SDS011;36308;46.312;25.288;2022-11-24T16:51:24;12.82;;;6.85;;
50393;SDS011;36308;46.312;25.288;2022-11-24T16:53:59;14.45;;;8.90;;